• Join FlightAware (Why Join?)
  • Login
  • US Flag 
10:28AM EDT


 

Airport Tracker/Info


-or-


 

Live Flight TrackerFlight Track Log ✈ N897MB ✈ 10-Nov-2013 ✈ KFLO - 8A6

Flight Track Log - Related Links

Times and Time Zones

All times are in EST time to prevent confusion due to time zone crossing. See the N897MB flight status page for this flight to view local times or setup timezone preferences in your user account.

Time Position Orientation Groundspeed Altitude Reporting Facility
EST Latitude Longitude Course Direction KTS MPH feet Rate Location/Type
01:55PM 34.3142 -79.8431 323° Northwest  Level FlightAware Approximate
01:56PM 34.3399 -79.8670 323° Northwest  Level FlightAware Approximate
01:57PM 34.3657 -79.8909 323° Northwest  Level FlightAware Approximate
01:58PM 34.3914 -79.9148 323° Northwest  Level FlightAware Approximate
01:59PM 34.4172 -79.9388 323° Northwest  Level FlightAware Approximate
02:00PM 34.4429 -79.9627 322° Northwest  Level FlightAware Approximate
02:01PM 34.4686 -79.9867 322° Northwest  Level FlightAware Approximate
02:02PM 34.4943 -80.0106 322° Northwest  Level FlightAware Approximate
02:03PM 34.5201 -80.0346 322° Northwest  Level FlightAware Approximate
02:04PM 34.5458 -80.0586 322° Northwest  Level FlightAware Approximate
02:05PM 34.5715 -80.0827 322° Northwest  Level FlightAware Approximate
02:06PM 34.5972 -80.1067 322° Northwest  Level FlightAware Approximate
02:07PM 34.6229 -80.1308 322° Northwest  Level FlightAware Approximate
02:08PM 34.6489 -80.1543 324° Northwest  Level Estimated
02:09PM 34.6750 -80.1777 324° Northwest  Level FlightAware Approximate
02:10PM 34.7011 -80.2012 324° Northwest  Level FlightAware Approximate
02:11PM 34.7272 -80.2246 324° Northwest  Level FlightAware Approximate
02:12PM 34.7532 -80.2481 324° Northwest  Level FlightAware Approximate
02:13PM 34.7793 -80.2716 323° Northwest  Level FlightAware Approximate
02:14PM 34.8054 -80.2951 323° Northwest  Level FlightAware Approximate
02:15PM 34.8314 -80.3186 323° Northwest  Level FlightAware Approximate
02:16PM 34.8575 -80.3422 323° Northwest  Level FlightAware Approximate
02:17PM 34.8835 -80.3657 323° Northwest  Level FlightAware Approximate
02:17PM 34.5969 -80.2258 322° Northwest 73 84 4,600  Level Atlanta Center
02:18PM 34.9096 -80.3893 323° Northwest  Level FlightAware Approximate
02:18PM 34.6122 -80.2456 313° West 75 86 4,500  Level Atlanta Center
02:19PM 34.9355 -80.4131 321° Northwest  Level Estimated
02:19PM 34.6275 -80.2650 314° West 77 89 4,500  Level Atlanta Center
02:20PM 34.9611 -80.4374 322° Northwest  Level FlightAware Approximate
02:20PM 34.6467 -80.2817 324° Northwest 75 86 4,500  Level Atlanta Center
02:21PM 34.9867 -80.4617 322° Northwest  Level FlightAware Approximate
02:21PM 34.6658 -80.2961 328° Northwest 78 90 4,500  Level Atlanta Center
02:22PM 35.0123 -80.4861 322° Northwest  Level FlightAware Approximate
02:22PM 34.6889 -80.2925 North 96 110  Level Atlanta Center
02:23PM 34.7197 -80.2811 17° North 94 108 4,600 1,380 Climbing Atlanta Center
02:24PM 34.7406 -80.2775 North 89 102 -60 Descending Atlanta Center
02:25PM 34.7697 -80.2814 354° North 85 98 4,500 2,040 Climbing Atlanta Center
02:26PM 34.7889 -80.2881 344° North 83 96 4,600  Climbing Atlanta Center
02:27PM 34.8078 -80.2922 350° North 81 93 4,600  Level Atlanta Center
02:28PM 34.8328 -80.2936 357° North 85 98 4,600 -60 Level Atlanta Center
02:29PM 34.8558 -80.2978 352° North 86 99 4,500 -60 Descending Atlanta Center
02:30PM 34.8828 -80.2939 North 90 104 4,500  Level Atlanta Center
02:31PM 34.9081 -80.2953 357° North 89 102 4,500  Level Atlanta Center
02:32PM 34.9331 -80.2992 353° North 90 104 4,500 -60 Level Atlanta Center
02:33PM 34.9542 -80.3083 340° North 88 101 4,400 -60 Descending Atlanta Center
02:34PM 34.9775 -80.3200 338° Northwest 84 97 4,400  Level Atlanta Center
02:35PM 35.0044 -80.3114 15° North 98 113 4,400 -60 Level Atlanta Center
02:37PM 35.0292 -80.3050 12° North 88 101 4,300 -240 Descending Atlanta Center
02:38PM 35.0525 -80.3142 342° North 96 110 4,000 -300 Descending Atlanta Center
02:38PM 35.0658 -80.3389 303° West 102 117 3,800 -480 Descending Atlanta Center
02:39PM 35.0772 -80.3689 295° West 98 113 3,100 -540 Descending Atlanta Center
02:40PM 35.0947 -80.3986 306° West 95 109 2,700 -300 Descending Atlanta Center
02:41PM 35.1081 -80.4258 301° West 93 107 2,600 -60 Descending Atlanta Center
02:42PM 35.1172 -80.4508 294° West 93 107 2,600 -60 Level Atlanta Center
02:43PM 35.1322 -80.4731 310° West 90 104 2,500  Descending Atlanta Center
02:44PM 35.1456 -80.5006 301° West 89 102 2,600  Climbing Atlanta Center
02:45PM 35.1528 -80.5306 286° West 89 102 2,500  Descending Atlanta Center
02:47PM 35.1619 -80.5633 289° West 87 100 2,700 120 Climbing Atlanta Center
02:49PM 35.1793 -80.6103 294° West  Level FlightAware Approximate
02:56PM 35.2000 -80.6667 295° West  Level FlightAware Approximate
02:57PM 35.2137 -80.6701 295° West  Level Estimated
02:58PM 35.2137 -80.6701 295° West  Level Estimated